Time;durP1;ratioP1;P1;durP2;ratioP2;P2;SDS_P1;SDS_P2;PMS_P1;PMS_P2;Temp;Humidity;BMP_temperature;BMP_pressure;BME280_temperature;BME280_humidity;BME280_pressure;Samples;Min_cycle;Max_cycle;Signal;HPM_P1;HPM_P2
2024/04/03 00:00:31;;;;;;;6.00;1.80;;;16.30;74.00;;;;;;5036060;28;20052;-33
2024/04/03 00:02:57;;;;;;;4.75;1.90;;;16.30;74.00;;;;;;5035911;28;20396;-33
2024/04/03 00:05:23;;;;;;;4.18;1.75;;;16.20;74.00;;;;;;5035665;28;20029;-31
2024/04/03 00:07:51;;;;;;;4.72;1.90;;;16.20;74.00;;;;;;5034149;28;20018;-33
2024/04/03 00:10:17;;;;;;;4.90;1.70;;;16.20;74.00;;;;;;5035387;28;20099;-32
2024/04/03 00:12:43;;;;;;;4.53;1.67;;;16.20;74.00;;;;;;5037266;28;20026;-32
2024/04/03 00:15:08;;;;;;;4.85;2.10;;;16.20;74.10;;;;;;5036335;28;20025;-32
2024/04/03 00:17:34;;;;;;;4.45;1.80;;;16.20;74.20;;;;;;5034564;28;20117;-33
2024/04/03 00:19:59;;;;;;;3.38;1.48;;;16.20;74.20;;;;;;5035938;28;20072;-32
2024/04/03 00:22:25;;;;;;;3.78;1.35;;;16.10;74.30;;;;;;5035246;28;20025;-33
2024/04/03 00:24:51;;;;;;;5.90;1.70;;;16.10;74.40;;;;;;5033765;28;20520;-32
2024/04/03 00:27:16;;;;;;;3.63;1.33;;;16.10;74.40;;;;;;5034718;28;20056;-33
2024/04/03 00:29:46;;;;;;;3.75;1.52;;;16.10;74.50;;;;;;5035784;28;20056;-33
2024/04/03 00:32:12;;;;;;;3.72;1.48;;;16.00;74.50;;;;;;5035588;28;20045;-32
2024/04/03 00:34:38;;;;;;;4.63;1.55;;;16.00;74.60;;;;;;5034778;28;20030;-33
2024/04/03 00:37:04;;;;;;;4.22;1.23;;;16.00;74.70;;;;;;5035508;28;20033;-33
2024/04/03 00:39:29;;;;;;;3.05;1.20;;;16.10;74.80;;;;;;5035393;28;20026;-33
2024/04/03 00:41:55;;;;;;;4.22;1.15;;;16.10;74.80;;;;;;5034951;28;20025;-33
2024/04/03 00:44:21;;;;;;;2.45;1.10;;;16.10;74.80;;;;;;5035867;28;20064;-32
2024/04/03 00:46:47;;;;;;;5.40;1.30;;;16.10;74.80;;;;;;5035094;28;20547;-31
2024/04/03 00:49:13;;;;;;;2.38;1.00;;;16.10;74.90;;;;;;5034935;28;20121;-32
2024/04/03 00:51:38;;;;;;;3.13;1.10;;;16.00;74.90;;;;;;5035741;28;20049;-33
2024/04/03 00:54:04;;;;;;;4.30;1.30;;;16.00;74.90;;;;;;5034783;28;20384;-32
2024/04/03 00:56:31;;;;;;;2.03;1.13;;;16.00;74.90;;;;;;5035770;28;20037;-32
2024/04/03 00:58:57;;;;;;;3.72;1.48;;;16.00;75.00;;;;;;5033373;28;20109;-33
2024/04/03 01:01:22;;;;;;;4.13;1.50;;;16.00;75.00;;;;;;5035153;28;20049;-32
2024/04/03 01:03:48;;;;;;;4.28;1.33;;;16.00;75.00;;;;;;5034604;28;20032;-31
2024/04/03 01:06:14;;;;;;;2.47;1.20;;;16.00;74.90;;;;;;5034110;28;20026;-32
2024/04/03 01:08:39;;;;;;;2.10;1.00;;;16.00;74.90;;;;;;5034619;28;20550;-32
2024/04/03 01:11:05;;;;;;;2.50;1.20;;;16.00;74.90;;;;;;5034108;28;20017;-33
2024/04/03 01:13:31;;;;;;;3.88;1.48;;;15.90;74.90;;;;;;5034539;28;20099;-33
2024/04/03 01:16:03;;;;;;;6.88;1.33;;;15.90;74.90;;;;;;5035604;28;20030;-32
2024/04/03 01:18:29;;;;;;;2.90;1.30;;;15.90;75.00;;;;;;5035348;28;20030;-32
2024/04/03 01:20:55;;;;;;;3.75;1.40;;;15.90;75.00;;;;;;5037079;28;20412;-31
2024/04/03 01:23:22;;;;;;;2.72;1.38;;;15.90;75.00;;;;;;5034788;28;20022;-30
2024/04/03 01:25:48;;;;;;;3.03;1.38;;;15.90;75.00;;;;;;5033943;28;20113;-33
2024/04/03 01:28:14;;;;;;;3.95;1.67;;;15.80;75.00;;;;;;5034688;28;20675;-31
2024/04/03 01:30:40;;;;;;;4.25;1.70;;;15.80;75.00;;;;;;5033661;28;20037;-32
2024/04/03 01:33:06;;;;;;;4.13;1.88;;;15.80;75.00;;;;;;5034417;28;20377;-31
2024/04/03 01:35:34;;;;;;;5.60;2.47;;;15.80;75.10;;;;;;5035099;28;20034;-31
2024/04/03 01:38:00;;;;;;;6.72;2.00;;;15.80;75.20;;;;;;5038476;28;20074;-32
2024/04/03 01:40:25;;;;;;;5.32;1.90;;;15.80;75.20;;;;;;5040003;28;20029;-31
2024/04/03 01:42:51;;;;;;;4.80;2.03;;;15.80;75.20;;;;;;5038224;28;20030;-31
2024/04/03 01:45:17;;;;;;;4.43;1.73;;;15.70;75.10;;;;;;5038010;28;20037;-33
2024/04/03 01:47:43;;;;;;;4.63;1.85;;;15.70;75.10;;;;;;5039510;28;20080;-33
2024/04/03 01:50:18;;;;;;;3.65;1.48;;;15.70;75.10;;;;;;5038060;28;20032;-33
2024/04/03 01:52:44;;;;;;;4.95;1.98;;;15.70;75.10;;;;;;5021703;28;20444;-32
2024/04/03 01:55:09;;;;;;;4.28;1.42;;;15.70;75.10;;;;;;5038030;28;20424;-33
2024/04/03 01:57:35;;;;;;;4.85;1.30;;;15.70;75.20;;;;;;5036885;28;20029;-33
2024/04/03 02:00:01;;;;;;;7.15;1.45;;;15.70;75.30;;;;;;5037856;28;20038;-33
2024/04/03 02:02:26;;;;;;;4.43;1.63;;;15.70;76.10;;;;;;5038497;28;20044;-32
2024/04/03 02:04:52;;;;;;;3.67;1.52;;;15.70;75.40;;;;;;5037678;28;20412;-31
2024/04/03 02:07:17;;;;;;;3.13;1.60;;;15.70;75.50;;;;;;5037735;28;20507;-33
2024/04/03 02:09:43;;;;;;;3.38;1.73;;;15.60;75.60;;;;;;5037521;28;20037;-32
2024/04/03 02:12:09;;;;;;;3.22;1.40;;;15.60;75.70;;;;;;5038216;28;20100;-33
2024/04/03 02:14:34;;;;;;;5.10;1.60;;;15.60;75.70;;;;;;5036698;28;20468;-32
2024/04/03 02:17:00;;;;;;;3.67;1.40;;;15.60;75.70;;;;;;5038436;28;20101;-32
2024/04/03 02:19:26;;;;;;;4.63;1.33;;;15.60;75.80;;;;;;5039250;28;20029;-31
2024/04/03 02:21:52;;;;;;;3.75;1.67;;;15.60;75.80;;;;;;5036900;28;20035;-31
2024/04/03 02:24:17;;;;;;;3.25;1.50;;;15.60;75.80;;;;;;5037027;28;20017;-33
2024/04/03 02:26:43;;;;;;;3.00;1.52;;;15.60;76.00;;;;;;5038869;28;20036;-33
2024/04/03 02:29:09;;;;;;;3.85;1.45;;;15.60;76.00;;;;;;5037305;28;20067;-32
2024/04/03 02:31:34;;;;;;;4.57;1.38;;;15.60;76.20;;;;;;5037859;28;20075;-33
2024/04/03 02:34:00;;;;;;;2.70;1.45;;;15.60;76.20;;;;;;5036955;28;20041;-32
2024/04/03 02:36:25;;;;;;;1.73;1.10;;;15.60;76.20;;;;;;5037563;28;20032;-32
2024/04/03 02:38:51;;;;;;;2.97;1.40;;;15.60;76.30;;;;;;5036599;28;20483;-31
2024/04/03 02:41:17;;;;;;;3.17;1.40;;;15.60;76.40;;;;;;5039017;28;20064;-33
2024/04/03 02:43:43;;;;;;;4.45;1.67;;;15.50;76.40;;;;;;5037396;28;20120;-31
2024/04/03 02:46:08;;;;;;;4.65;1.77;;;15.50;76.50;;;;;;5037152;28;20035;-32
2024/04/03 02:48:34;;;;;;;4.38;1.80;;;15.50;76.50;;;;;;5036111;28;20026;-32
2024/04/03 02:51:05;;;;;;;4.60;1.80;;;15.50;76.70;;;;;;5037819;28;20026;-32
2024/04/03 02:53:33;;;;;;;3.20;1.38;;;15.50;76.90;;;;;;5037416;28;20026;-33
2024/04/03 02:56:03;;;;;;;3.60;1.70;;;15.50;77.00;;;;;;5037566;28;20032;-32
2024/04/03 02:58:29;;;;;;;2.55;1.42;;;15.60;77.20;;;;;;5036056;28;20072;-31
2024/04/03 03:01:02;;;;;;;3.30;1.55;;;15.60;77.20;;;;;;5035396;28;20053;-32
2024/04/03 03:03:29;;;;;;;4.20;1.33;;;15.50;77.20;;;;;;5036063;28;20120;-32
2024/04/03 03:05:56;;;;;;;3.40;1.70;;;15.50;77.30;;;;;;5033805;28;20022;-33
2024/04/03 03:08:21;;;;;;;2.72;1.50;;;15.50;78.10;;;;;;5033777;28;20120;-33
2024/04/03 03:10:47;;;;;;;3.63;1.27;;;15.50;77.50;;;;;;5033599;28;20049;-33
2024/04/03 03:13:13;;;;;;;3.83;1.40;;;15.60;77.70;;;;;;5035201;28;20040;-32
2024/04/03 03:15:39;;;;;;;3.65;1.30;;;15.60;77.80;;;;;;5035456;28;20021;-30
2024/04/03 03:18:04;;;;;;;5.05;1.45;;;15.60;77.90;;;;;;5033804;28;20040;-33
2024/04/03 03:20:30;;;;;;;5.55;1.38;;;15.60;77.90;;;;;;5033512;28;20373;-31
2024/04/03 03:22:56;;;;;;;2.83;1.63;;;15.60;77.90;;;;;;5033520;28;20037;-31
2024/04/03 03:25:21;;;;;;;3.85;1.52;;;15.60;77.90;;;;;;5033608;28;20021;-31
2024/04/03 03:27:47;;;;;;;2.80;1.38;;;15.60;77.90;;;;;;5033281;28;20025;-32
2024/04/03 03:30:12;;;;;;;3.92;1.45;;;15.60;78.00;;;;;;5033380;28;20033;-34
2024/04/03 03:32:38;;;;;;;3.08;1.50;;;15.60;78.00;;;;;;5033408;28;20095;-32
2024/04/03 03:35:04;;;;;;;4.45;1.58;;;15.60;78.10;;;;;;5033304;28;20031;-31
2024/04/03 03:37:30;;;;;;;2.53;1.20;;;15.60;78.10;;;;;;5033029;28;20473;-31
2024/04/03 03:39:55;;;;;;;4.13;1.55;;;15.60;78.10;;;;;;5033062;28;20091;-31
2024/04/03 03:42:22;;;;;;;3.85;1.33;;;15.60;78.10;;;;;;5033242;28;20032;-33
2024/04/03 03:44:49;;;;;;;2.22;1.20;;;15.60;78.20;;;;;;5033138;28;20026;-31
2024/04/03 03:47:15;;;;;;;3.58;1.55;;;15.50;78.20;;;;;;5032983;28;20034;-37
2024/04/03 03:52:37;;;;;;;3.95;1.45;;;15.60;78.40;;;;;;5033181;28;20068;-31
2024/04/03 03:55:03;;;;;;;1.90;1.30;;;15.60;78.50;;;;;;5033163;28;20033;-31
2024/04/03 03:57:30;;;;;;;3.15;1.10;;;15.60;78.50;;;;;;5032754;28;20420;-31
2024/04/03 03:59:56;;;;;;;3.00;1.30;;;15.60;78.50;;;;;;5032886;28;20132;-34
2024/04/03 04:02:22;;;;;;;6.28;1.80;;;15.60;78.50;;;;;;5032754;28;20021;-32
2024/04/03 04:04:54;;;;;;;3.67;1.70;;;15.60;79.40;;;;;;5032601;28;20033;-32
2024/04/03 04:07:20;;;;;;;2.75;1.75;;;15.60;78.60;;;;;;5032562;28;20041;-33
2024/04/03 04:09:50;;;;;;;7.43;2.75;;;15.60;78.70;;;;;;5032633;28;20492;-35
2024/04/03 04:12:17;;;;;;;5.32;2.58;;;15.60;78.70;;;;;;5032596;28;20040;-30
2024/04/03 04:14:51;;;;;;;3.70;1.70;;;15.60;78.80;;;;;;5032608;28;20040;-32
2024/04/03 04:17:17;;;;;;;;;;;15.60;78.90;;;;;;5032659;28;20038;-32
2024/04/03 04:19:42;;;;;;;2.65;1.20;;;15.60;78.90;;;;;;5032503;28;19932;-32
2024/04/03 04:22:08;;;;;;;2.78;1.20;;;15.60;78.90;;;;;;5032313;28;20029;-31
2024/04/03 04:24:38;;;;;;;3.50;1.50;;;15.60;79.00;;;;;;5032342;28;20029;-33
2024/04/03 04:27:07;;;;;;;2.40;1.02;;;15.60;79.00;;;;;;5032347;28;20018;-32
2024/04/03 04:29:36;;;;;;;2.08;1.02;;;15.60;79.10;;;;;;5032320;28;20025;-31
2024/04/03 04:32:04;;;;;;;1.75;1.00;;;15.60;79.20;;;;;;5032238;28;20380;-31
2024/04/03 04:34:30;;;;;;;3.03;1.48;;;15.50;79.10;;;;;;5032276;28;20031;-34
2024/04/03 04:36:56;;;;;;;3.40;1.60;;;15.60;79.00;;;;;;5032116;28;20025;-32
2024/04/03 04:39:21;;;;;;;2.40;1.20;;;15.60;79.10;;;;;;5033118;28;20048;-31
2024/04/03 04:41:51;;;;;;;2.65;1.02;;;15.60;79.00;;;;;;5035262;28;20033;-31
2024/04/03 04:44:18;;;;;;;3.13;1.02;;;15.60;78.90;;;;;;5031975;28;20025;-32
2024/04/03 04:46:47;;;;;;;2.45;0.80;;;15.60;78.80;;;;;;5032251;28;20037;-33
2024/04/03 04:49:13;;;;;;;2.58;1.00;;;15.70;78.70;;;;;;5032049;28;20028;-33
2024/04/03 04:51:38;;;;;;;3.33;1.15;;;15.70;78.70;;;;;;5032347;28;20388;-33
2024/04/03 04:54:04;;;;;;;3.35;1.10;;;15.70;78.60;;;;;;5032503;28;20018;-32
2024/04/03 04:56:30;;;;;;;2.83;0.90;;;15.70;78.60;;;;;;5033000;28;20033;-32
2024/04/03 04:58:55;;;;;;;2.50;1.10;;;15.80;78.60;;;;;;5032603;28;20033;-32
2024/04/03 05:01:21;;;;;;;4.97;1.20;;;15.80;78.60;;;;;;5033243;28;20029;-33
2024/04/03 05:03:46;;;;;;;2.38;1.10;;;15.80;78.50;;;;;;5032435;28;20029;-32
2024/04/03 05:06:16;;;;;;;1.88;0.90;;;15.90;78.50;;;;;;5032492;28;20025;-33
2024/04/03 05:08:42;;;;;;;1.85;1.00;;;15.90;78.50;;;;;;5033144;28;20018;-33
2024/04/03 05:11:07;;;;;;;3.25;1.20;;;16.00;78.50;;;;;;5037958;28;20033;-32
2024/04/03 05:13:34;;;;;;;2.47;1.05;;;16.00;78.50;;;;;;5039068;28;20408;-33
2024/04/03 05:16:11;;;;;;;3.45;1.08;;;16.10;78.50;;;;;;5038760;28;20032;-31
2024/04/03 05:18:37;;;;;;;2.40;0.95;;;16.10;78.50;;;;;;5038736;28;20040;-31
2024/04/03 05:21:04;;;;;;;2.28;1.05;;;16.10;78.50;;;;;;5038843;28;20060;-32
2024/04/03 05:23:30;;;;;;;2.33;1.02;;;16.20;78.60;;;;;;5038930;28;20123;-33
2024/04/03 05:26:01;;;;;;;2.05;0.85;;;16.20;78.40;;;;;;5039000;28;20109;-31
2024/04/03 05:28:28;;;;;;;1.38;0.85;;;16.30;78.50;;;;;;5039083;28;20076;-32
2024/04/03 05:30:54;;;;;;;1.95;0.90;;;16.30;78.50;;;;;;5039690;28;20013;-32
2024/04/03 05:33:21;;;;;;;2.05;0.90;;;16.30;78.50;;;;;;5039865;28;20505;-32
2024/04/03 05:36:00;;;;;;;1.52;0.73;;;16.30;78.40;;;;;;5038243;28;20484;-31
2024/04/03 05:38:26;;;;;;;1.00;0.68;;;16.40;78.50;;;;;;5039344;28;20029;-33
2024/04/03 05:40:53;;;;;;;1.50;1.05;;;16.40;78.50;;;;;;5038417;28;20108;-31
2024/04/03 05:43:19;;;;;;;3.00;1.00;;;16.40;78.50;;;;;;5038686;28;20489;-31
2024/04/03 05:45:45;;;;;;;2.05;1.20;;;16.40;78.50;;;;;;5038036;28;20370;-32
2024/04/03 05:48:12;;;;;;;1.67;0.90;;;16.50;78.50;;;;;;5038010;28;20032;-32
2024/04/03 05:50:38;;;;;;;1.98;0.95;;;16.50;78.50;;;;;;5040043;28;20025;-33
2024/04/03 05:53:04;;;;;;;1.45;0.93;;;16.50;78.50;;;;;;5038377;28;20068;-33
2024/04/03 05:55:30;;;;;;;1.83;0.77;;;16.50;78.50;;;;;;5039197;28;20029;-33
2024/04/03 05:57:56;;;;;;;1.75;0.90;;;16.50;78.50;;;;;;5039238;28;20081;-33
2024/04/03 06:00:22;;;;;;;2.08;0.75;;;16.60;78.50;;;;;;5039220;28;20056;-33
2024/04/03 06:02:48;;;;;;;1.55;0.90;;;16.50;78.50;;;;;;5039292;28;20033;-32
2024/04/03 06:05:14;;;;;;;1.80;0.90;;;16.60;78.60;;;;;;5039904;28;20391;-32
2024/04/03 06:07:40;;;;;;;1.52;0.80;;;16.60;78.50;;;;;;5039753;28;20070;-33
2024/04/03 06:10:06;;;;;;;2.28;0.80;;;16.60;78.50;;;;;;5039199;28;20687;-32
2024/04/03 06:12:32;;;;;;;2.03;0.70;;;16.70;78.60;;;;;;5040042;28;20036;-32
2024/04/03 06:14:58;;;;;;;1.48;0.73;;;16.70;78.50;;;;;;5038547;28;20025;-31
2024/04/03 06:17:24;;;;;;;1.52;0.75;;;16.70;78.50;;;;;;5038730;28;20034;-31
2024/04/03 06:19:50;;;;;;;2.85;0.90;;;16.70;78.50;;;;;;5039698;28;20032;-31
2024/04/03 06:22:15;;;;;;;1.75;0.68;;;16.70;78.50;;;;;;5034952;28;20518;-33
2024/04/03 06:24:42;;;;;;;2.65;0.80;;;16.70;78.50;;;;;;5034840;28;20025;-33
2024/04/03 06:27:08;;;;;;;1.98;0.73;;;16.70;78.50;;;;;;5035616;28;20018;-32
2024/04/03 06:29:34;;;;;;;0.93;0.52;;;16.80;78.60;;;;;;5034759;28;20435;-32
2024/04/03 06:32:01;;;;;;;1.90;0.90;;;16.80;78.50;;;;;;5035203;28;20064;-33
2024/04/03 06:34:27;;;;;;;0.88;0.57;;;16.80;78.50;;;;;;5036986;28;20081;-33
2024/04/03 06:36:53;;;;;;;2.25;0.85;;;16.80;78.60;;;;;;5034652;28;20040;-32
2024/04/03 06:39:19;;;;;;;2.22;0.90;;;16.80;78.60;;;;;;5034370;28;20026;-32
2024/04/03 06:41:45;;;;;;;1.70;0.93;;;16.90;78.60;;;;;;5034835;28;20036;-31
2024/04/03 06:44:10;;;;;;;1.80;0.98;;;16.90;78.60;;;;;;5034613;28;20033;-33
2024/04/03 06:46:36;;;;;;;1.95;0.70;;;16.90;78.60;;;;;;5035273;28;20423;-32
2024/04/03 06:49:02;;;;;;;1.17;0.80;;;16.90;78.60;;;;;;5034773;28;20076;-32
2024/04/03 06:51:28;;;;;;;1.25;0.70;;;16.90;78.60;;;;;;5034600;28;20024;-31
2024/04/03 06:53:54;;;;;;;1.70;0.90;;;16.90;78.60;;;;;;5034141;28;20022;-32
2024/04/03 06:56:19;;;;;;;1.58;0.80;;;16.90;78.60;;;;;;5034443;28;20029;-33
2024/04/03 06:58:45;;;;;;;3.35;1.08;;;17.00;78.60;;;;;;5034449;28;20144;-32
2024/04/03 07:01:12;;;;;;;1.95;0.93;;;17.00;78.60;;;;;;5034501;28;20077;-33
2024/04/03 07:03:39;;;;;;;1.85;0.90;;;17.00;78.70;;;;;;5034407;28;20040;-33
2024/04/03 07:06:08;;;;;;;1.77;0.90;;;17.00;78.80;;;;;;5033933;28;20025;-33
2024/04/03 07:08:34;;;;;;;2.45;0.93;;;17.00;78.90;;;;;;5033857;28;20396;-33
2024/04/03 07:11:01;;;;;;;2.15;0.82;;;17.00;79.00;;;;;;5034969;28;20021;-33
2024/04/03 07:13:27;;;;;;;1.75;0.88;;;17.00;79.20;;;;;;5034684;28;20032;-33
2024/04/03 07:15:53;;;;;;;2.75;0.80;;;17.00;79.20;;;;;;5035023;28;20029;-32
2024/04/03 07:18:19;;;;;;;0.98;0.68;;;17.00;79.30;;;;;;5034494;28;20112;-33
2024/04/03 07:20:58;;;;;;;3.05;1.00;;;17.00;79.20;;;;;;5034186;28;20068;-33
2024/04/03 07:23:27;;;;;;;2.95;0.90;;;17.10;79.30;;;;;;5034256;28;20045;-33
2024/04/03 07:25:54;;;;;;;1.83;0.90;;;17.10;79.30;;;;;;5036000;28;20091;-32
2024/04/03 07:28:19;;;;;;;1.77;0.90;;;17.00;79.30;;;;;;5034524;28;20028;-32
2024/04/03 07:30:45;;;;;;;2.45;1.08;;;17.10;79.40;;;;;;5034820;28;20022;-33
2024/04/03 07:33:11;;;;;;;2.88;0.70;;;17.10;79.50;;;;;;5034683;28;20026;-33
2024/04/03 07:35:37;;;;;;;2.35;0.70;;;17.10;79.50;;;;;;5034879;28;20461;-33
2024/04/03 07:38:07;;;;;;;1.42;0.80;;;17.20;79.60;;;;;;5033176;28;20033;-33
2024/04/03 07:40:34;;;;;;;1.08;0.65;;;17.20;79.60;;;;;;5034467;28;20108;-33
2024/04/03 07:43:00;;;;;;;1.85;0.60;;;17.20;79.60;;;;;;5034416;28;20053;-33
2024/04/03 07:45:25;;;;;;;2.53;0.90;;;17.20;79.70;;;;;;5032442;28;20518;-33
2024/04/03 07:47:51;;;;;;;3.25;0.70;;;17.20;79.70;;;;;;5034401;28;20021;-33
2024/04/03 07:50:17;;;;;;;0.88;0.57;;;17.20;79.80;;;;;;5034153;28;20110;-34
2024/04/03 07:52:43;;;;;;;1.60;0.70;;;17.30;79.90;;;;;;5033164;28;20407;-34
2024/04/03 07:55:10;;;;;;;2.03;0.80;;;17.30;79.90;;;;;;5033313;28;20036;-33
2024/04/03 07:57:37;;;;;;;0.98;0.60;;;17.30;79.90;;;;;;5033992;28;20025;-32
2024/04/03 08:00:05;;;;;;;1.35;0.80;;;17.30;80.00;;;;;;5032766;28;20112;-33
2024/04/03 08:02:41;;;;;;;1.25;0.68;;;17.30;80.10;;;;;;5036743;28;20395;-33
2024/04/03 08:05:11;;;;;;;1.70;0.70;;;17.30;80.00;;;;;;5034874;28;20026;-33
2024/04/03 08:07:38;;;;;;;2.55;0.80;;;17.30;80.10;;;;;;5032650;28;20018;-33
2024/04/03 08:10:05;;;;;;;2.15;0.70;;;17.30;80.20;;;;;;5034070;28;20033;-33
2024/04/03 08:12:32;;;;;;;1.42;0.50;;;17.40;80.30;;;;;;5033717;28;20105;-33
2024/04/03 08:14:58;;;;;;;1.80;0.73;;;17.40;80.30;;;;;;5033109;28;20029;-32
2024/04/03 08:17:27;;;;;;;1.50;0.70;;;17.40;80.30;;;;;;5033161;28;20033;-33
2024/04/03 08:19:54;;;;;;;1.73;0.63;;;17.40;80.40;;;;;;5032042;28;20021;-32
2024/04/03 08:22:20;;;;;;;1.48;0.70;;;17.50;80.50;;;;;;5032358;28;20150;-34
2024/04/03 08:24:47;;;;;;;1.63;0.75;;;17.40;80.40;;;;;;5031403;28;20492;-33
2024/04/03 08:27:13;;;;;;;1.38;0.70;;;17.50;80.40;;;;;;5033429;28;20033;-33
2024/04/03 08:29:48;;;;;;;0.90;0.47;;;17.50;80.40;;;;;;5033489;28;20029;-33
2024/04/03 08:32:15;;;;;;;1.42;0.77;;;17.50;80.40;;;;;;5039055;28;20022;-34
2024/04/03 08:34:43;;;;;;;1.10;0.75;;;17.60;80.40;;;;;;5041355;28;20104;-33
2024/04/03 08:37:12;;;;;;;1.55;0.60;;;17.60;80.40;;;;;;5033365;28;20491;-33
2024/04/03 08:39:38;;;;;;;1.13;0.55;;;17.60;80.40;;;;;;5030912;28;20018;-33
2024/04/03 08:42:04;;;;;;;0.90;0.50;;;17.70;80.40;;;;;;5033076;28;20025;-32
2024/04/03 08:44:34;;;;;;;1.05;0.55;;;17.70;80.40;;;;;;5031257;28;20013;-33
2024/04/03 08:47:00;;;;;;;1.48;0.70;;;17.70;80.30;;;;;;5032085;28;20396;-32
2024/04/03 08:49:31;;;;;;;2.10;0.60;;;17.70;80.30;;;;;;5033473;28;20025;-33
2024/04/03 08:52:06;;;;;;;1.13;0.63;;;17.80;80.30;;;;;;5033462;28;20047;-33
2024/04/03 08:54:32;;;;;;;1.13;0.70;;;17.80;80.30;;;;;;5032529;28;20026;-33
2024/04/03 08:57:03;;;;;;;1.00;0.60;;;17.80;80.20;;;;;;5032458;28;20106;-33
2024/04/03 08:59:34;;;;;;;1.05;0.80;;;17.80;80.20;;;;;;5033548;28;20034;-33
2024/04/03 09:02:01;;;;;;;1.45;0.60;;;17.90;80.20;;;;;;5033136;28;20029;-32
2024/04/03 09:04:26;;;;;;;0.90;0.60;;;17.90;80.20;;;;;;5033957;28;20026;-33
2024/04/03 09:06:52;;;;;;;0.63;0.50;;;17.90;80.10;;;;;;5033667;28;20420;-33
2024/04/03 09:09:24;;;;;;;1.30;0.60;;;18.00;80.10;;;;;;5033489;28;20429;-32
2024/04/03 09:11:51;;;;;;;0.70;0.40;;;18.00;80.10;;;;;;5032114;28;20061;-33
2024/04/03 09:14:20;;;;;;;1.25;0.80;;;18.10;80.10;;;;;;5033261;28;20018;-33
2024/04/03 09:16:46;;;;;;;0.90;0.60;;;18.10;80.10;;;;;;5030611;28;20033;-33
2024/04/03 09:19:12;;;;;;;1.05;0.50;;;18.10;80.00;;;;;;5032079;28;20042;-32
2024/04/03 09:21:38;;;;;;;1.10;0.60;;;18.20;80.10;;;;;;5041890;28;20017;-33
2024/04/03 09:24:04;;;;;;;0.73;0.40;;;18.20;80.00;;;;;;5033862;28;20037;-33
2024/04/03 09:26:30;;;;;;;0.77;0.50;;;18.30;80.00;;;;;;5032794;28;20029;-32
2024/04/03 09:28:59;;;;;;;0.90;0.47;;;18.30;79.90;;;;;;5033781;28;20029;-33
2024/04/03 09:31:25;;;;;;;1.27;0.50;;;18.40;79.80;;;;;;5030436;28;20044;-33
2024/04/03 09:33:54;;;;;;;0.93;0.50;;;18.40;79.70;;;;;;5028525;28;20032;-34
2024/04/03 09:36:21;;;;;;;0.60;0.40;;;18.50;79.60;;;;;;5031592;28;20416;-33
2024/04/03 09:38:47;;;;;;;0.60;0.32;;;18.60;79.60;;;;;;5052455;28;20031;-33
2024/04/03 09:41:14;;;;;;;0.82;0.38;;;18.60;79.40;;;;;;5038642;28;20022;-33
2024/04/03 09:43:44;;;;;;;0.82;0.50;;;18.70;79.30;;;;;;5032777;28;20037;-33
2024/04/03 09:46:12;;;;;;;1.23;0.50;;;18.80;79.10;;;;;;5030275;28;20060;-32
2024/04/03 09:48:40;;;;;;;1.40;0.43;;;18.80;79.00;;;;;;5031457;28;20350;-33
2024/04/03 09:51:05;;;;;;;1.52;0.70;;;18.90;78.80;;;;;;5030325;28;20063;-33
2024/04/03 09:53:32;;;;;;;1.17;0.75;;;18.90;78.70;;;;;;5048400;28;20042;-33
2024/04/03 09:55:58;;;;;;;1.05;0.40;;;19.00;78.60;;;;;;5041719;28;20033;-32
2024/04/03 09:58:27;;;;;;;1.75;0.63;;;19.10;78.40;;;;;;5035661;28;20116;-33
2024/04/03 10:00:55;;;;;;;1.08;0.35;;;19.10;78.30;;;;;;5036888;28;20099;-34
2024/04/03 10:03:26;;;;;;;0.68;0.50;;;19.20;78.20;;;;;;5034976;28;20500;-33
2024/04/03 10:06:16;;;;;;;2.08;0.52;;;19.20;78.00;;;;;;5035052;28;20479;-33
2024/04/03 10:08:44;;;;;;;0.70;0.40;;;19.30;77.90;;;;;;5045106;28;20424;-33
2024/04/03 10:11:12;;;;;;;0.55;0.50;;;19.30;77.80;;;;;;5035254;28;20071;-33
2024/04/03 10:13:41;;;;;;;1.00;0.50;;;19.30;77.60;;;;;;5026629;28;20029;-33
2024/04/03 10:16:09;;;;;;;1.00;0.50;;;19.40;77.60;;;;;;5035212;28;20396;-32
2024/04/03 10:18:35;;;;;;;0.70;0.40;;;19.40;77.50;;;;;;5034808;28;20033;-33
2024/04/03 10:21:02;;;;;;;0.80;0.40;;;19.50;77.40;;;;;;5036183;28;20063;-33
2024/04/03 10:23:28;;;;;;;0.57;0.32;;;19.50;77.30;;;;;;5036395;28;20029;-33
2024/04/03 10:25:55;;;;;;;0.60;0.40;;;19.50;77.20;;;;;;5036992;28;20037;-33
2024/04/03 10:28:21;;;;;;;1.00;0.55;;;19.50;77.20;;;;;;5034199;28;20052;-32
2024/04/03 10:30:55;;;;;;;1.15;0.65;;;19.50;77.10;;;;;;5033028;28;20013;-33
2024/04/03 10:33:21;;;;;;;0.60;0.40;;;19.60;77.90;;;;;;5034317;28;20026;-32
2024/04/03 10:35:48;;;;;;;1.15;0.60;;;19.50;77.00;;;;;;5035873;28;20038;-33
2024/04/03 10:38:14;;;;;;;0.50;0.30;;;19.60;77.00;;;;;;5036584;28;20025;-32
2024/04/03 10:40:40;;;;;;;0.70;0.45;;;19.60;77.00;;;;;;5035526;28;20029;-33
2024/04/03 10:43:06;;;;;;;1.38;0.40;;;19.60;77.00;;;;;;5036410;28;20370;-34
2024/04/03 10:45:32;;;;;;;0.73;0.40;;;19.60;77.00;;;;;;5034232;28;20037;-34
2024/04/03 10:47:58;;;;;;;0.43;0.40;;;19.60;77.00;;;;;;5035090;28;20022;-33
2024/04/03 10:50:24;;;;;;;0.55;0.32;;;19.60;77.00;;;;;;5035883;28;20036;-32
2024/04/03 10:52:50;;;;;;;0.50;0.40;;;19.70;77.10;;;;;;5035417;28;20026;-33
2024/04/03 10:55:20;;;;;;;0.77;0.35;;;19.70;77.10;;;;;;5035003;28;20048;-33
2024/04/03 10:57:52;;;;;;;1.27;0.50;;;19.70;77.00;;;;;;5034708;28;20097;-33
2024/04/03 11:00:20;;;;;;;0.68;0.40;;;19.70;77.00;;;;;;5034331;28;20441;-34
2024/04/03 11:02:46;;;;;;;0.82;0.38;;;19.70;76.90;;;;;;5035187;28;20091;-33
2024/04/03 11:05:14;;;;;;;0.43;0.32;;;19.70;76.90;;;;;;5034198;28;20036;-33
2024/04/03 11:07:44;;;;;;;1.23;0.40;;;19.80;76.90;;;;;;5033112;28;20022;-33
2024/04/03 11:10:11;;;;;;;1.10;0.30;;;19.80;76.80;;;;;;5033622;28;20022;-33
2024/04/03 11:12:37;;;;;;;0.60;0.30;;;19.80;76.80;;;;;;5033024;28;20028;-33
2024/04/03 11:15:09;;;;;;;0.50;0.30;;;19.80;76.80;;;;;;5033059;28;20018;-33
2024/04/03 11:17:35;;;;;;;0.30;0.25;;;19.80;76.70;;;;;;5033759;28;20587;-33
2024/04/03 11:20:02;;;;;;;0.50;0.30;;;19.80;76.70;;;;;;5034736;28;20025;-33
2024/04/03 11:22:28;;;;;;;0.50;0.32;;;19.80;76.70;;;;;;5035513;28;20033;-33
2024/04/03 11:24:55;;;;;;;0.85;0.50;;;19.80;76.70;;;;;;5034782;28;20409;-32
2024/04/03 11:27:21;;;;;;;0.60;0.40;;;19.80;76.70;;;;;;5033543;28;20093;-34
2024/04/03 11:29:46;;;;;;;0.80;0.30;;;19.80;76.70;;;;;;5032214;28;20105;-34
2024/04/03 11:32:14;;;;;;;0.80;0.40;;;19.80;76.70;;;;;;5032774;28;20021;-34
2024/04/03 11:34:39;;;;;;;1.23;0.40;;;19.80;76.70;;;;;;5033103;28;20377;-33
2024/04/03 11:37:05;;;;;;;1.27;0.47;;;19.80;76.70;;;;;;5032951;28;20033;-33
2024/04/03 11:39:32;;;;;;;0.77;0.30;;;19.80;76.80;;;;;;5034784;28;20107;-34
2024/04/03 11:41:59;;;;;;;0.40;0.30;;;19.80;76.80;;;;;;5032541;28;20516;-33
2024/04/03 11:44:25;;;;;;;0.47;0.30;;;19.80;76.80;;;;;;5033017;28;20388;-33
2024/04/03 11:46:51;;;;;;;0.60;0.30;;;19.80;77.60;;;;;;5034119;28;20038;-33
2024/04/03 11:49:16;;;;;;;1.27;0.45;;;19.80;76.90;;;;;;5034675;28;20103;-32
2024/04/03 11:51:42;;;;;;;0.47;0.30;;;19.80;76.90;;;;;;5034381;28;20033;-33
2024/04/03 11:54:08;;;;;;;0.73;0.35;;;19.80;76.90;;;;;;5033022;28;20028;-33
2024/04/03 11:56:33;;;;;;;0.60;0.30;;;19.80;76.90;;;;;;5034056;28;20037;-33
2024/04/03 11:59:00;;;;;;;0.30;0.22;;;19.80;77.00;;;;;;5034245;28;20032;-33
2024/04/03 12:01:26;;;;;;;0.35;0.30;;;19.80;77.00;;;;;;5033091;28;20056;-33
2024/04/03 12:03:52;;;;;;;1.05;0.40;;;19.80;77.00;;;;;;5034447;28;20240;-32
2024/04/03 12:06:18;;;;;;;0.43;0.20;;;19.80;77.00;;;;;;5031301;28;20155;-33
2024/04/03 12:08:50;;;;;;;0.35;0.22;;;19.80;77.10;;;;;;5033849;28;20033;-33
2024/04/03 12:11:16;;;;;;;0.43;0.17;;;19.80;77.10;;;;;;5032389;28;20026;-33
2024/04/03 12:13:42;;;;;;;0.60;0.30;;;19.80;77.20;;;;;;5034368;28;20036;-33
2024/04/03 12:16:10;;;;;;;0.75;0.38;;;19.80;77.20;;;;;;5032110;28;20516;-33
2024/04/03 12:18:37;;;;;;;0.47;0.40;;;19.80;77.20;;;;;;5032076;28;20025;-33
2024/04/03 12:21:08;;;;;;;0.30;0.20;;;19.80;77.20;;;;;;5033234;28;20052;-33
2024/04/03 12:23:34;;;;;;;0.50;0.35;;;19.70;77.40;;;;;;5033609;28;20037;-34
2024/04/03 12:26:02;;;;;;;0.47;0.30;;;19.70;77.30;;;;;;5028948;28;20511;-33
2024/04/03 12:28:29;;;;;;;0.45;0.30;;;19.70;77.30;;;;;;5038470;28;20037;-33
2024/04/03 12:30:54;;;;;;;0.90;0.30;;;19.70;77.30;;;;;;5030998;28;20029;-33
2024/04/03 12:33:20;;;;;;;0.57;0.20;;;19.80;77.40;;;;;;5032517;28;20029;-33
2024/04/03 12:35:46;;;;;;;0.35;0.20;;;19.80;77.40;;;;;;5032506;28;20056;-33
2024/04/03 12:38:15;;;;;;;0.20;0.20;;;19.70;77.40;;;;;;5032534;28;20033;-33
2024/04/03 12:40:40;;;;;;;0.47;0.20;;;19.70;77.40;;;;;;5033018;28;20113;-33
2024/04/03 12:43:06;;;;;;;0.20;0.20;;;19.70;77.40;;;;;;5032407;28;20104;-33
2024/04/03 12:45:33;;;;;;;0.63;0.20;;;19.70;77.40;;;;;;5031752;28;20025;-33
2024/04/03 12:48:01;;;;;;;0.75;0.30;;;19.70;77.50;;;;;;5026074;28;20377;-33